Zenata – Messali El Hadj Airport

DAON · Tlemcen, 阿尔及利亚

罗盘
风向 的 风向 320° Zenata – Messali El Hadj Airport 7/25
风: 4 kt, 2 beaufort

1 kt

4 kt
改变
0 ft 1.000 2.000 3.000 4.000 5.000
CAVOK
METAR DAON 232000Z 32004KT CAVOK 26/14 Q1013

METAR Zenata – Messali El Hadj Airport - DAON/TLM

Zenata – Messali El Hadj Airport是,阿尔及利亚中的中型机场。 该机场位于纬度35,01343和经度-1,45719。 该机场有一条跑道: 7/25. 本场的ICAO机场代码为DAON。 该机场的IATA代码为TLM。 机场在Alger FIR中。

该航空气象观测是针对Zenata – Messali El Hadj Airport在2024年6月23日 21:00, 当地时间进行的。

机场观察

风向为320°,速度为4 kt。

天气为CAVOK。这意味着在5.000 ft或MSA(最低安全高度)以下(以较高者为准)以下没有云。这也意味着没有观测到积雨云或高耸的积云,可见度为10 km 或者更多或更高。此外,不会有雾,降雨或其他重要天气。

温度和风寒是26 °C。 露点为14 °C,相对湿度为48%。 海平面上的气压为1013 hPa (QNH)。

白天

今天,太阳从05:52升起,在20:23降落。 这适用于Zenata – Messali El Hadj Airport,世界夏令时可能有所不同。 当地时间与世界标准时间之间的时差为+1 小时。 夏令时目前正在进行中。

公司介绍

我们没有关于这个机场的公司信息。

体会

到Vliegles.nl去找飞行课程,跳伞和其他飞行体验。 浏览页面,了解Zenata – Messali El Hadj Airport附近所有可用的活动。 你也可以使用搜索功能来寻找你所在地附近的特定飞行课程、跳伞或其他飞行体验。

跑道

Id 标题 侧风 逆风 侧风 %
7/25 070°-250° 4 kt 1 kt 94 %

逆风成分最大的方向会被突出显示,并用于横风计算。 这并不一定意味着这个方向在使用。

温度 & 天气

温度 26 °C
露点 14 °C
相对湿度 48%
Kp-index 3 (0-9)

白天

日出
05:52 (8:36)
中午
13:08
日落
20:23

小工具

你想在你的网站上有一个关于Zenata – Messali El Hadj Airport的当前航空天气(METAR)的小部件吗?

显示HTML代码
报告变更